sensor_id;sensor_type;location;lat;lon;timestamp;P1;durP1;ratioP1;P2;durP2;ratioP2
79706;SDS011;69200;53.612;-2.416;2023-05-10T00:02:22;10.00;;;3.15;;
79706;SDS011;69200;53.612;-2.416;2023-05-10T00:04:47;18.48;;;4.18;;
79706;SDS011;69200;53.612;-2.416;2023-05-10T00:07:13;18.67;;;3.70;;
79706;SDS011;69200;53.612;-2.416;2023-05-10T00:09:38;20.13;;;3.70;;
79706;SDS011;69200;53.612;-2.416;2023-05-10T00:12:04;17.83;;;3.08;;
79706;SDS011;69200;53.612;-2.416;2023-05-10T00:14:29;18.08;;;3.72;;
79706;SDS011;69200;53.612;-2.416;2023-05-10T00:16:55;12.88;;;2.47;;
79706;SDS011;69200;53.612;-2.416;2023-05-10T00:19:20;13.68;;;3.47;;
79706;SDS011;69200;53.612;-2.416;2023-05-10T00:21:46;15.48;;;3.47;;
79706;SDS011;69200;53.612;-2.416;2023-05-10T00:24:11;19.77;;;3.83;;
79706;SDS011;69200;53.612;-2.416;2023-05-10T00:26:36;15.02;;;2.80;;
79706;SDS011;69200;53.612;-2.416;2023-05-10T00:29:02;14.00;;;2.55;;
79706;SDS011;69200;53.612;-2.416;2023-05-10T00:31:27;10.88;;;2.65;;
79706;SDS011;69200;53.612;-2.416;2023-05-10T00:33:53;14.18;;;3.13;;
79706;SDS011;69200;53.612;-2.416;2023-05-10T00:36:18;12.38;;;3.22;;
79706;SDS011;69200;53.612;-2.416;2023-05-10T00:38:43;15.55;;;2.58;;
79706;SDS011;69200;53.612;-2.416;2023-05-10T00:41:09;13.95;;;2.80;;
79706;SDS011;69200;53.612;-2.416;2023-05-10T00:43:34;19.52;;;3.15;;
79706;SDS011;69200;53.612;-2.416;2023-05-10T00:46:00;15.88;;;3.05;;
79706;SDS011;69200;53.612;-2.416;2023-05-10T00:48:25;11.18;;;2.92;;
79706;SDS011;69200;53.612;-2.416;2023-05-10T00:50:50;18.88;;;3.30;;
79706;SDS011;69200;53.612;-2.416;2023-05-10T00:53:16;10.32;;;2.58;;
79706;SDS011;69200;53.612;-2.416;2023-05-10T00:55:41;13.90;;;3.00;;
79706;SDS011;69200;53.612;-2.416;2023-05-10T00:58:07;16.67;;;3.35;;
79706;SDS011;69200;53.612;-2.416;2023-05-10T01:00:33;15.52;;;3.70;;
79706;SDS011;69200;53.612;-2.416;2023-05-10T01:02:58;21.05;;;3.40;;
79706;SDS011;69200;53.612;-2.416;2023-05-10T01:05:24;17.63;;;3.35;;
79706;SDS011;69200;53.612;-2.416;2023-05-10T01:07:49;18.50;;;3.80;;
79706;SDS011;69200;53.612;-2.416;2023-05-10T01:10:15;15.93;;;3.40;;
79706;SDS011;69200;53.612;-2.416;2023-05-10T01:12:41;13.70;;;3.22;;
79706;SDS011;69200;53.612;-2.416;2023-05-10T01:15:09;21.75;;;3.38;;
79706;SDS011;69200;53.612;-2.416;2023-05-10T01:17:37;16.10;;;3.20;;
79706;SDS011;69200;53.612;-2.416;2023-05-10T01:20:04;18.42;;;3.80;;
79706;SDS011;69200;53.612;-2.416;2023-05-10T01:28:06;15.52;;;3.55;;
79706;SDS011;69200;53.612;-2.416;2023-05-10T01:34:06;17.15;;;3.05;;
79706;SDS011;69200;53.612;-2.416;2023-05-10T01:36:35;14.70;;;3.20;;
79706;SDS011;69200;53.612;-2.416;2023-05-10T01:39:08;17.98;;;3.40;;
79706;SDS011;69200;53.612;-2.416;2023-05-10T01:41:55;17.67;;;3.42;;
79706;SDS011;69200;53.612;-2.416;2023-05-10T01:47:08;16.15;;;3.72;;
79706;SDS011;69200;53.612;-2.416;2023-05-10T01:49:41;14.23;;;4.25;;
79706;SDS011;69200;53.612;-2.416;2023-05-10T01:52:15;16.38;;;3.35;;
79706;SDS011;69200;53.612;-2.416;2023-05-10T01:54:53;11.52;;;3.45;;
79706;SDS011;69200;53.612;-2.416;2023-05-10T01:57:25;13.10;;;3.28;;
79706;SDS011;69200;53.612;-2.416;2023-05-10T01:59:52;13.07;;;3.10;;
79706;SDS011;69200;53.612;-2.416;2023-05-10T02:02:20;15.02;;;3.78;;
79706;SDS011;69200;53.612;-2.416;2023-05-10T02:04:46;13.75;;;4.10;;
79706;SDS011;69200;53.612;-2.416;2023-05-10T02:07:14;14.23;;;3.47;;
79706;SDS011;69200;53.612;-2.416;2023-05-10T02:09:41;14.30;;;3.85;;
79706;SDS011;69200;53.612;-2.416;2023-05-10T02:12:12;13.45;;;4.32;;
79706;SDS011;69200;53.612;-2.416;2023-05-10T02:14:39;11.35;;;3.28;;
79706;SDS011;69200;53.612;-2.416;2023-05-10T02:17:06;12.88;;;3.28;;
79706;SDS011;69200;53.612;-2.416;2023-05-10T02:19:34;15.40;;;3.80;;
79706;SDS011;69200;53.612;-2.416;2023-05-10T02:22:02;13.48;;;3.22;;
79706;SDS011;69200;53.612;-2.416;2023-05-10T02:24:28;13.75;;;3.45;;
79706;SDS011;69200;53.612;-2.416;2023-05-10T02:26:55;12.40;;;3.17;;
79706;SDS011;69200;53.612;-2.416;2023-05-10T02:29:23;11.85;;;2.88;;
79706;SDS011;69200;53.612;-2.416;2023-05-10T02:31:54;12.45;;;3.60;;
79706;SDS011;69200;53.612;-2.416;2023-05-10T02:34:23;20.77;;;4.25;;
79706;SDS011;69200;53.612;-2.416;2023-05-10T02:36:51;14.07;;;3.58;;
79706;SDS011;69200;53.612;-2.416;2023-05-10T02:39:18;16.42;;;3.78;;
79706;SDS011;69200;53.612;-2.416;2023-05-10T02:41:46;12.20;;;3.35;;
79706;SDS011;69200;53.612;-2.416;2023-05-10T02:44:13;11.10;;;3.85;;
79706;SDS011;69200;53.612;-2.416;2023-05-10T02:46:40;16.00;;;4.25;;
79706;SDS011;69200;53.612;-2.416;2023-05-10T02:49:05;11.07;;;3.50;;
79706;SDS011;69200;53.612;-2.416;2023-05-10T02:51:32;12.07;;;3.50;;
79706;SDS011;69200;53.612;-2.416;2023-05-10T02:54:18;15.05;;;3.63;;
79706;SDS011;69200;53.612;-2.416;2023-05-10T02:56:50;13.18;;;4.43;;
79706;SDS011;69200;53.612;-2.416;2023-05-10T02:59:18;13.68;;;4.18;;
79706;SDS011;69200;53.612;-2.416;2023-05-10T03:01:44;15.20;;;5.05;;
79706;SDS011;69200;53.612;-2.416;2023-05-10T03:04:10;17.98;;;4.93;;
79706;SDS011;69200;53.612;-2.416;2023-05-10T03:06:35;15.05;;;4.82;;
79706;SDS011;69200;53.612;-2.416;2023-05-10T03:09:01;17.10;;;5.30;;
79706;SDS011;69200;53.612;-2.416;2023-05-10T03:11:43;21.05;;;5.75;;
79706;SDS011;69200;53.612;-2.416;2023-05-10T03:22:37;19.92;;;5.53;;
79706;SDS011;69200;53.612;-2.416;2023-05-10T03:25:06;19.60;;;5.15;;
79706;SDS011;69200;53.612;-2.416;2023-05-10T03:27:33;17.65;;;5.20;;
79706;SDS011;69200;53.612;-2.416;2023-05-10T03:30:01;26.40;;;6.97;;
79706;SDS011;69200;53.612;-2.416;2023-05-10T03:32:28;24.23;;;6.15;;
79706;SDS011;69200;53.612;-2.416;2023-05-10T03:34:55;30.98;;;6.03;;
79706;SDS011;69200;53.612;-2.416;2023-05-10T03:37:20;23.30;;;6.18;;
79706;SDS011;69200;53.612;-2.416;2023-05-10T03:39:45;29.88;;;6.40;;
79706;SDS011;69200;53.612;-2.416;2023-05-10T03:42:11;33.08;;;6.32;;
79706;SDS011;69200;53.612;-2.416;2023-05-10T03:44:37;27.52;;;7.22;;
79706;SDS011;69200;53.612;-2.416;2023-05-10T03:47:03;28.25;;;7.60;;
79706;SDS011;69200;53.612;-2.416;2023-05-10T03:49:29;26.10;;;6.93;;
79706;SDS011;69200;53.612;-2.416;2023-05-10T03:51:54;28.75;;;7.50;;
79706;SDS011;69200;53.612;-2.416;2023-05-10T03:54:20;26.13;;;6.28;;
79706;SDS011;69200;53.612;-2.416;2023-05-10T03:56:45;27.58;;;7.55;;
79706;SDS011;69200;53.612;-2.416;2023-05-10T03:59:12;28.83;;;6.32;;
79706;SDS011;69200;53.612;-2.416;2023-05-10T04:01:38;27.60;;;6.72;;
79706;SDS011;69200;53.612;-2.416;2023-05-10T04:04:03;36.63;;;8.13;;
79706;SDS011;69200;53.612;-2.416;2023-05-10T04:06:29;33.67;;;8.40;;
79706;SDS011;69200;53.612;-2.416;2023-05-10T04:08:54;35.28;;;9.15;;
79706;SDS011;69200;53.612;-2.416;2023-05-10T04:11:20;40.90;;;7.90;;
79706;SDS011;69200;53.612;-2.416;2023-05-10T04:13:47;29.55;;;8.02;;
79706;SDS011;69200;53.612;-2.416;2023-05-10T04:16:12;41.10;;;8.25;;
79706;SDS011;69200;53.612;-2.416;2023-05-10T04:18:37;50.97;;;8.48;;
79706;SDS011;69200;53.612;-2.416;2023-05-10T04:21:04;44.78;;;8.35;;
79706;SDS011;69200;53.612;-2.416;2023-05-10T04:23:35;41.95;;;7.63;;
79706;SDS011;69200;53.612;-2.416;2023-05-10T04:26:01;30.50;;;7.55;;
79706;SDS011;69200;53.612;-2.416;2023-05-10T04:28:26;35.33;;;8.13;;
79706;SDS011;69200;53.612;-2.416;2023-05-10T04:30:52;33.13;;;7.53;;
79706;SDS011;69200;53.612;-2.416;2023-05-10T04:33:17;33.47;;;8.43;;
79706;SDS011;69200;53.612;-2.416;2023-05-10T04:35:43;29.77;;;7.60;;
79706;SDS011;69200;53.612;-2.416;2023-05-10T04:38:09;28.13;;;7.60;;
79706;SDS011;69200;53.612;-2.416;2023-05-10T04:40:35;31.48;;;7.65;;
79706;SDS011;69200;53.612;-2.416;2023-05-10T04:43:00;35.72;;;8.70;;
79706;SDS011;69200;53.612;-2.416;2023-05-10T04:45:26;27.58;;;7.97;;
79706;SDS011;69200;53.612;-2.416;2023-05-10T04:47:51;31.70;;;9.02;;
79706;SDS011;69200;53.612;-2.416;2023-05-10T04:50:16;33.38;;;9.43;;
79706;SDS011;69200;53.612;-2.416;2023-05-10T04:52:42;34.05;;;8.85;;
79706;SDS011;69200;53.612;-2.416;2023-05-10T04:55:07;37.97;;;9.45;;
79706;SDS011;69200;53.612;-2.416;2023-05-10T04:57:34;27.58;;;8.30;;
79706;SDS011;69200;53.612;-2.416;2023-05-10T04:59:59;33.45;;;8.68;;
79706;SDS011;69200;53.612;-2.416;2023-05-10T05:02:25;28.63;;;9.32;;
79706;SDS011;69200;53.612;-2.416;2023-05-10T05:04:50;31.52;;;8.52;;
79706;SDS011;69200;53.612;-2.416;2023-05-10T05:07:16;31.83;;;8.95;;
79706;SDS011;69200;53.612;-2.416;2023-05-10T05:09:41;34.40;;;9.20;;
79706;SDS011;69200;53.612;-2.416;2023-05-10T05:12:06;35.00;;;8.75;;
79706;SDS011;69200;53.612;-2.416;2023-05-10T05:14:32;44.95;;;9.07;;
79706;SDS011;69200;53.612;-2.416;2023-05-10T05:16:57;31.00;;;8.57;;
79706;SDS011;69200;53.612;-2.416;2023-05-10T05:19:23;34.42;;;7.32;;
79706;SDS011;69200;53.612;-2.416;2023-05-10T05:21:49;31.80;;;7.80;;
79706;SDS011;69200;53.612;-2.416;2023-05-10T05:24:14;35.15;;;8.70;;
79706;SDS011;69200;53.612;-2.416;2023-05-10T05:26:40;32.60;;;8.27;;
79706;SDS011;69200;53.612;-2.416;2023-05-10T05:29:05;23.85;;;8.13;;
79706;SDS011;69200;53.612;-2.416;2023-05-10T05:31:30;32.42;;;7.88;;
79706;SDS011;69200;53.612;-2.416;2023-05-10T05:33:56;30.20;;;8.23;;
79706;SDS011;69200;53.612;-2.416;2023-05-10T05:36:21;33.13;;;8.40;;
79706;SDS011;69200;53.612;-2.416;2023-05-10T05:38:47;36.53;;;9.70;;
79706;SDS011;69200;53.612;-2.416;2023-05-10T05:41:12;33.67;;;8.77;;
79706;SDS011;69200;53.612;-2.416;2023-05-10T05:43:38;34.05;;;8.93;;
79706;SDS011;69200;53.612;-2.416;2023-05-10T05:46:03;26.48;;;8.45;;
79706;SDS011;69200;53.612;-2.416;2023-05-10T05:48:29;27.70;;;8.23;;
79706;SDS011;69200;53.612;-2.416;2023-05-10T05:50:55;27.98;;;8.88;;
79706;SDS011;69200;53.612;-2.416;2023-05-10T05:53:21;26.90;;;9.05;;
79706;SDS011;69200;53.612;-2.416;2023-05-10T05:55:57;27.85;;;7.68;;
79706;SDS011;69200;53.612;-2.416;2023-05-10T05:58:23;31.10;;;9.07;;
79706;SDS011;69200;53.612;-2.416;2023-05-10T06:00:50;27.33;;;8.38;;
79706;SDS011;69200;53.612;-2.416;2023-05-10T06:03:16;22.45;;;7.35;;
79706;SDS011;69200;53.612;-2.416;2023-05-10T06:05:42;23.83;;;7.85;;
79706;SDS011;69200;53.612;-2.416;2023-05-10T06:08:08;25.10;;;8.30;;
79706;SDS011;69200;53.612;-2.416;2023-05-10T06:10:34;23.98;;;8.90;;
79706;SDS011;69200;53.612;-2.416;2023-05-10T06:12:59;30.17;;;8.98;;
79706;SDS011;69200;53.612;-2.416;2023-05-10T06:15:25;27.50;;;8.70;;
79706;SDS011;69200;53.612;-2.416;2023-05-10T06:17:51;33.35;;;9.20;;
79706;SDS011;69200;53.612;-2.416;2023-05-10T06:20:16;29.08;;;9.52;;
79706;SDS011;69200;53.612;-2.416;2023-05-10T06:22:41;26.65;;;7.72;;
79706;SDS011;69200;53.612;-2.416;2023-05-10T06:25:07;26.63;;;7.18;;
79706;SDS011;69200;53.612;-2.416;2023-05-10T06:27:33;24.48;;;7.90;;
79706;SDS011;69200;53.612;-2.416;2023-05-10T06:29:59;23.60;;;7.18;;
79706;SDS011;69200;53.612;-2.416;2023-05-10T06:32:25;24.88;;;7.20;;
79706;SDS011;69200;53.612;-2.416;2023-05-10T06:34:50;27.73;;;7.15;;
79706;SDS011;69200;53.612;-2.416;2023-05-10T06:37:15;21.85;;;6.72;;
79706;SDS011;69200;53.612;-2.416;2023-05-10T06:39:41;21.13;;;6.40;;
79706;SDS011;69200;53.612;-2.416;2023-05-10T06:42:06;21.10;;;6.50;;
79706;SDS011;69200;53.612;-2.416;2023-05-10T06:44:32;19.52;;;5.60;;
79706;SDS011;69200;53.612;-2.416;2023-05-10T06:46:57;25.88;;;6.18;;
79706;SDS011;69200;53.612;-2.416;2023-05-10T06:49:22;16.55;;;5.20;;
79706;SDS011;69200;53.612;-2.416;2023-05-10T06:51:48;18.83;;;5.57;;
79706;SDS011;69200;53.612;-2.416;2023-05-10T06:54:14;20.83;;;6.68;;
79706;SDS011;69200;53.612;-2.416;2023-05-10T06:56:39;18.98;;;6.70;;
79706;SDS011;69200;53.612;-2.416;2023-05-10T06:59:04;19.10;;;6.97;;
79706;SDS011;69200;53.612;-2.416;2023-05-10T07:01:30;20.70;;;6.10;;
79706;SDS011;69200;53.612;-2.416;2023-05-10T07:03:55;23.20;;;6.30;;
79706;SDS011;69200;53.612;-2.416;2023-05-10T07:06:21;22.05;;;5.82;;
79706;SDS011;69200;53.612;-2.416;2023-05-10T07:08:46;16.83;;;5.90;;
79706;SDS011;69200;53.612;-2.416;2023-05-10T07:11:11;12.88;;;4.57;;
79706;SDS011;69200;53.612;-2.416;2023-05-10T07:13:37;18.58;;;6.25;;
79706;SDS011;69200;53.612;-2.416;2023-05-10T07:16:04;17.15;;;5.70;;
79706;SDS011;69200;53.612;-2.416;2023-05-10T07:18:31;17.75;;;5.55;;
79706;SDS011;69200;53.612;-2.416;2023-05-10T07:20:57;16.58;;;5.22;;
79706;SDS011;69200;53.612;-2.416;2023-05-10T07:23:22;15.85;;;5.03;;
79706;SDS011;69200;53.612;-2.416;2023-05-10T07:25:48;14.65;;;4.35;;
79706;SDS011;69200;53.612;-2.416;2023-05-10T07:28:15;10.63;;;3.42;;
79706;SDS011;69200;53.612;-2.416;2023-05-10T07:30:41;14.68;;;4.88;;
79706;SDS011;69200;53.612;-2.416;2023-05-10T07:33:08;13.85;;;4.43;;
79706;SDS011;69200;53.612;-2.416;2023-05-10T07:35:34;11.10;;;4.03;;
79706;SDS011;69200;53.612;-2.416;2023-05-10T07:38:00;14.52;;;4.13;;
79706;SDS011;69200;53.612;-2.416;2023-05-10T07:40:25;13.32;;;3.58;;
79706;SDS011;69200;53.612;-2.416;2023-05-10T07:42:51;9.65;;;3.30;;
79706;SDS011;69200;53.612;-2.416;2023-05-10T07:45:17;12.55;;;3.30;;
79706;SDS011;69200;53.612;-2.416;2023-05-10T07:47:43;8.13;;;2.63;;
79706;SDS011;69200;53.612;-2.416;2023-05-10T07:50:08;10.10;;;3.05;;
79706;SDS011;69200;53.612;-2.416;2023-05-10T07:52:34;10.98;;;2.78;;
79706;SDS011;69200;53.612;-2.416;2023-05-10T07:54:59;9.18;;;3.25;;
79706;SDS011;69200;53.612;-2.416;2023-05-10T07:57:24;8.23;;;2.70;;
79706;SDS011;69200;53.612;-2.416;2023-05-10T07:59:50;10.48;;;2.88;;
79706;SDS011;69200;53.612;-2.416;2023-05-10T08:02:15;8.95;;;3.05;;
79706;SDS011;69200;53.612;-2.416;2023-05-10T08:04:41;9.90;;;3.30;;
79706;SDS011;69200;53.612;-2.416;2023-05-10T08:07:06;10.68;;;3.13;;
79706;SDS011;69200;53.612;-2.416;2023-05-10T08:09:32;11.02;;;3.53;;
79706;SDS011;69200;53.612;-2.416;2023-05-10T08:11:57;10.90;;;3.10;;
79706;SDS011;69200;53.612;-2.416;2023-05-10T08:14:24;10.30;;;3.45;;
79706;SDS011;69200;53.612;-2.416;2023-05-10T08:16:49;8.88;;;2.70;;
79706;SDS011;69200;53.612;-2.416;2023-05-10T08:19:15;11.07;;;2.60;;
79706;SDS011;69200;53.612;-2.416;2023-05-10T08:21:44;10.25;;;2.92;;
79706;SDS011;69200;53.612;-2.416;2023-05-10T08:24:09;12.73;;;2.97;;
79706;SDS011;69200;53.612;-2.416;2023-05-10T08:26:35;8.73;;;2.60;;
79706;SDS011;69200;53.612;-2.416;2023-05-10T08:29:00;10.15;;;2.63;;
79706;SDS011;69200;53.612;-2.416;2023-05-10T08:31:25;6.80;;;2.20;;
79706;SDS011;69200;53.612;-2.416;2023-05-10T08:33:51;6.55;;;2.42;;
79706;SDS011;69200;53.612;-2.416;2023-05-10T08:36:17;8.80;;;2.25;;
79706;SDS011;69200;53.612;-2.416;2023-05-10T08:38:46;6.10;;;1.90;;
79706;SDS011;69200;53.612;-2.416;2023-05-10T08:41:12;6.95;;;2.05;;
79706;SDS011;69200;53.612;-2.416;2023-05-10T08:43:38;8.75;;;2.17;;
79706;SDS011;69200;53.612;-2.416;2023-05-10T08:46:06;7.78;;;2.10;;
79706;SDS011;69200;53.612;-2.416;2023-05-10T08:48:34;6.60;;;2.63;;
79706;SDS011;69200;53.612;-2.416;2023-05-10T08:51:00;9.95;;;2.30;;
79706;SDS011;69200;53.612;-2.416;2023-05-10T08:53:29;7.45;;;2.30;;
79706;SDS011;69200;53.612;-2.416;2023-05-10T08:55:56;7.10;;;2.22;;
79706;SDS011;69200;53.612;-2.416;2023-05-10T08:58:22;5.63;;;2.28;;
79706;SDS011;69200;53.612;-2.416;2023-05-10T09:00:48;7.40;;;2.13;;
79706;SDS011;69200;53.612;-2.416;2023-05-10T09:03:15;8.50;;;2.85;;
79706;SDS011;69200;53.612;-2.416;2023-05-10T09:05:41;9.30;;;3.45;;
79706;SDS011;69200;53.612;-2.416;2023-05-10T09:08:07;7.85;;;2.45;;
79706;SDS011;69200;53.612;-2.416;2023-05-10T09:10:33;7.45;;;2.78;;
79706;SDS011;69200;53.612;-2.416;2023-05-10T09:12:59;6.18;;;2.42;;
79706;SDS011;69200;53.612;-2.416;2023-05-10T09:15:25;7.65;;;2.42;;
79706;SDS011;69200;53.612;-2.416;2023-05-10T09:17:50;6.85;;;2.55;;
79706;SDS011;69200;53.612;-2.416;2023-05-10T09:20:16;6.68;;;2.55;;
79706;SDS011;69200;53.612;-2.416;2023-05-10T09:22:45;5.25;;;1.70;;
79706;SDS011;69200;53.612;-2.416;2023-05-10T09:25:14;8.38;;;1.50;;
79706;SDS011;69200;53.612;-2.416;2023-05-10T09:27:41;5.53;;;1.30;;
79706;SDS011;69200;53.612;-2.416;2023-05-10T09:30:10;5.30;;;1.27;;
79706;SDS011;69200;53.612;-2.416;2023-05-10T09:32:41;5.22;;;1.10;;
79706;SDS011;69200;53.612;-2.416;2023-05-10T09:35:08;2.72;;;0.82;;
79706;SDS011;69200;53.612;-2.416;2023-05-10T09:37:45;3.08;;;0.82;;
79706;SDS011;69200;53.612;-2.416;2023-05-10T09:40:16;3.67;;;1.10;;
79706;SDS011;69200;53.612;-2.416;2023-05-10T09:42:56;4.85;;;1.00;;
79706;SDS011;69200;53.612;-2.416;2023-05-10T09:45:24;4.45;;;0.90;;
79706;SDS011;69200;53.612;-2.416;2023-05-10T09:47:53;3.28;;;0.80;;
79706;SDS011;69200;53.612;-2.416;2023-05-10T09:50:20;4.00;;;0.80;;
79706;SDS011;69200;53.612;-2.416;2023-05-10T09:52:50;3.45;;;0.75;;
79706;SDS011;69200;53.612;-2.416;2023-05-10T09:55:17;4.28;;;0.90;;
79706;SDS011;69200;53.612;-2.416;2023-05-10T09:57:47;5.90;;;1.10;;
79706;SDS011;69200;53.612;-2.416;2023-05-10T10:00:18;2.92;;;0.85;;
79706;SDS011;69200;53.612;-2.416;2023-05-10T10:02:47;4.65;;;1.58;;
79706;SDS011;69200;53.612;-2.416;2023-05-10T10:05:19;3.67;;;1.67;;
79706;SDS011;69200;53.612;-2.416;2023-05-10T10:07:44;6.32;;;1.13;;
79706;SDS011;69200;53.612;-2.416;2023-05-10T10:10:09;3.58;;;0.88;;
79706;SDS011;69200;53.612;-2.416;2023-05-10T10:12:37;3.03;;;0.95;;
79706;SDS011;69200;53.612;-2.416;2023-05-10T10:15:07;4.05;;;0.90;;
79706;SDS011;69200;53.612;-2.416;2023-05-10T10:17:35;3.00;;;0.80;;
79706;SDS011;69200;53.612;-2.416;2023-05-10T10:20:02;3.88;;;0.88;;
79706;SDS011;69200;53.612;-2.416;2023-05-10T10:22:28;1.88;;;0.70;;
79706;SDS011;69200;53.612;-2.416;2023-05-10T10:24:53;2.42;;;0.68;;
79706;SDS011;69200;53.612;-2.416;2023-05-10T10:32:33;4.22;;;0.93;;
79706;SDS011;69200;53.612;-2.416;2023-05-10T10:35:02;3.50;;;0.93;;
79706;SDS011;69200;53.612;-2.416;2023-05-10T10:37:45;4.93;;;0.90;;
79706;SDS011;69200;53.612;-2.416;2023-05-10T10:40:24;3.60;;;1.00;;
79706;SDS011;69200;53.612;-2.416;2023-05-10T10:42:52;3.45;;;0.82;;
79706;SDS011;69200;53.612;-2.416;2023-05-10T10:45:19;4.47;;;0.93;;
79706;SDS011;69200;53.612;-2.416;2023-05-10T10:47:46;2.60;;;0.88;;
79706;SDS011;69200;53.612;-2.416;2023-05-10T10:50:11;3.20;;;0.90;;
79706;SDS011;69200;53.612;-2.416;2023-05-10T10:52:41;2.85;;;1.00;;
79706;SDS011;69200;53.612;-2.416;2023-05-10T10:55:14;3.88;;;1.23;;
79706;SDS011;69200;53.612;-2.416;2023-05-10T10:57:47;8.73;;;1.40;;
79706;SDS011;69200;53.612;-2.416;2023-05-10T11:03:04;5.47;;;1.02;;
79706;SDS011;69200;53.612;-2.416;2023-05-10T11:05:34;2.75;;;0.80;;
79706;SDS011;69200;53.612;-2.416;2023-05-10T11:08:01;3.67;;;0.88;;
79706;SDS011;69200;53.612;-2.416;2023-05-10T11:10:32;2.97;;;0.80;;
79706;SDS011;69200;53.612;-2.416;2023-05-10T11:15:31;4.10;;;1.13;;
79706;SDS011;69200;53.612;-2.416;2023-05-10T11:20:22;6.35;;;0.80;;
79706;SDS011;69200;53.612;-2.416;2023-05-10T11:22:52;2.78;;;0.70;;
79706;SDS011;69200;53.612;-2.416;2023-05-10T11:25:19;5.20;;;1.02;;
79706;SDS011;69200;53.612;-2.416;2023-05-10T11:27:45;2.58;;;0.88;;
79706;SDS011;69200;53.612;-2.416;2023-05-10T11:30:13;3.78;;;0.90;;
79706;SDS011;69200;53.612;-2.416;2023-05-10T11:32:40;5.15;;;0.80;;
79706;SDS011;69200;53.612;-2.416;2023-05-10T11:35:09;4.40;;;0.95;;
79706;SDS011;69200;53.612;-2.416;2023-05-10T11:37:36;4.20;;;1.10;;
79706;SDS011;69200;53.612;-2.416;2023-05-10T11:40:07;3.80;;;1.10;;
79706;SDS011;69200;53.612;-2.416;2023-05-10T11:42:35;3.78;;;1.00;;
79706;SDS011;69200;53.612;-2.416;2023-05-10T11:45:04;4.65;;;0.90;;
79706;SDS011;69200;53.612;-2.416;2023-05-10T11:47:30;3.33;;;0.93;;
79706;SDS011;69200;53.612;-2.416;2023-05-10T11:49:56;4.00;;;1.00;;
79706;SDS011;69200;53.612;-2.416;2023-05-10T11:52:22;4.45;;;0.98;;
79706;SDS011;69200;53.612;-2.416;2023-05-10T11:54:51;4.82;;;0.95;;
79706;SDS011;69200;53.612;-2.416;2023-05-10T11:57:20;3.13;;;0.90;;
79706;SDS011;69200;53.612;-2.416;2023-05-10T11:59:46;3.35;;;0.80;;
79706;SDS011;69200;53.612;-2.416;2023-05-10T12:02:14;3.88;;;0.70;;
79706;SDS011;69200;53.612;-2.416;2023-05-10T12:04:40;2.90;;;0.70;;
79706;SDS011;69200;53.612;-2.416;2023-05-10T12:07:06;3.22;;;0.70;;
79706;SDS011;69200;53.612;-2.416;2023-05-10T12:09:32;5.05;;;0.82;;
79706;SDS011;69200;53.612;-2.416;2023-05-10T12:11:57;3.85;;;0.73;;
79706;SDS011;69200;53.612;-2.416;2023-05-10T12:14:22;3.35;;;0.68;;
79706;SDS011;69200;53.612;-2.416;2023-05-10T12:16:49;7.75;;;1.13;;
79706;SDS011;69200;53.612;-2.416;2023-05-10T12:19:18;2.88;;;1.00;;
79706;SDS011;69200;53.612;-2.416;2023-05-10T12:21:45;4.45;;;0.88;;
79706;SDS011;69200;53.612;-2.416;2023-05-10T12:24:11;3.22;;;0.90;;
79706;SDS011;69200;53.612;-2.416;2023-05-10T12:26:36;4.15;;;1.08;;
79706;SDS011;69200;53.612;-2.416;2023-05-10T12:29:14;3.60;;;1.00;;
79706;SDS011;69200;53.612;-2.416;2023-05-10T12:31:51;4.65;;;1.10;;
79706;SDS011;69200;53.612;-2.416;2023-05-10T12:34:33;4.65;;;0.93;;
79706;SDS011;69200;53.612;-2.416;2023-05-10T12:37:01;3.13;;;0.75;;
79706;SDS011;69200;53.612;-2.416;2023-05-10T12:39:38;4.38;;;0.88;;
79706;SDS011;69200;53.612;-2.416;2023-05-10T12:42:07;3.67;;;0.70;;
79706;SDS011;69200;53.612;-2.416;2023-05-10T12:44:32;5.22;;;0.80;;
79706;SDS011;69200;53.612;-2.416;2023-05-10T12:46:59;3.28;;;0.77;;
79706;SDS011;69200;53.612;-2.416;2023-05-10T12:49:24;3.80;;;0.90;;
79706;SDS011;69200;53.612;-2.416;2023-05-10T12:51:50;5.10;;;1.10;;
79706;SDS011;69200;53.612;-2.416;2023-05-10T12:54:15;3.20;;;0.65;;
79706;SDS011;69200;53.612;-2.416;2023-05-10T12:56:41;4.90;;;0.88;;
79706;SDS011;69200;53.612;-2.416;2023-05-10T12:59:07;3.40;;;0.95;;
79706;SDS011;69200;53.612;-2.416;2023-05-10T13:01:33;6.43;;;0.95;;
79706;SDS011;69200;53.612;-2.416;2023-05-10T13:03:58;6.50;;;0.90;;
79706;SDS011;69200;53.612;-2.416;2023-05-10T13:06:25;4.50;;;0.77;;
79706;SDS011;69200;53.612;-2.416;2023-05-10T13:08:50;3.70;;;1.00;;
79706;SDS011;69200;53.612;-2.416;2023-05-10T13:11:17;2.78;;;0.80;;
79706;SDS011;69200;53.612;-2.416;2023-05-10T13:13:44;7.18;;;0.98;;
79706;SDS011;69200;53.612;-2.416;2023-05-10T13:16:10;4.07;;;1.00;;
79706;SDS011;69200;53.612;-2.416;2023-05-10T13:18:35;4.65;;;0.95;;
79706;SDS011;69200;53.612;-2.416;2023-05-10T13:21:00;2.58;;;0.75;;
79706;SDS011;69200;53.612;-2.416;2023-05-10T13:23:27;4.68;;;0.88;;
79706;SDS011;69200;53.612;-2.416;2023-05-10T13:25:52;3.33;;;0.80;;
79706;SDS011;69200;53.612;-2.416;2023-05-10T13:28:17;3.85;;;0.93;;
79706;SDS011;69200;53.612;-2.416;2023-05-10T13:30:43;2.40;;;0.68;;
79706;SDS011;69200;53.612;-2.416;2023-05-10T13:33:08;4.43;;;0.77;;
79706;SDS011;69200;53.612;-2.416;2023-05-10T13:35:33;2.25;;;0.80;;
79706;SDS011;69200;53.612;-2.416;2023-05-10T13:37:59;4.68;;;1.02;;
79706;SDS011;69200;53.612;-2.416;2023-05-10T13:40:24;4.07;;;1.10;;
79706;SDS011;69200;53.612;-2.416;2023-05-10T13:42:50;4.45;;;0.82;;
79706;SDS011;69200;53.612;-2.416;2023-05-10T13:45:15;4.28;;;0.73;;
79706;SDS011;69200;53.612;-2.416;2023-05-10T13:47:41;2.90;;;0.70;;
79706;SDS011;69200;53.612;-2.416;2023-05-10T13:50:06;2.90;;;0.77;;
79706;SDS011;69200;53.612;-2.416;2023-05-10T13:52:32;2.83;;;0.65;;
79706;SDS011;69200;53.612;-2.416;2023-05-10T13:54:57;1.85;;;0.63;;
79706;SDS011;69200;53.612;-2.416;2023-05-10T13:57:23;3.17;;;0.75;;
79706;SDS011;69200;53.612;-2.416;2023-05-10T13:59:49;2.28;;;0.68;;
79706;SDS011;69200;53.612;-2.416;2023-05-10T14:02:14;3.65;;;0.90;;
79706;SDS011;69200;53.612;-2.416;2023-05-10T14:04:40;2.80;;;0.52;;
79706;SDS011;69200;53.612;-2.416;2023-05-10T14:07:05;2.63;;;0.70;;
79706;SDS011;69200;53.612;-2.416;2023-05-10T14:09:31;3.17;;;0.70;;
79706;SDS011;69200;53.612;-2.416;2023-05-10T14:11:56;3.53;;;0.73;;
79706;SDS011;69200;53.612;-2.416;2023-05-10T14:14:22;4.03;;;0.95;;
79706;SDS011;69200;53.612;-2.416;2023-05-10T14:16:47;2.80;;;0.60;;
79706;SDS011;69200;53.612;-2.416;2023-05-10T14:19:12;3.33;;;0.70;;
79706;SDS011;69200;53.612;-2.416;2023-05-10T14:21:38;3.88;;;0.80;;
79706;SDS011;69200;53.612;-2.416;2023-05-10T14:24:03;3.63;;;0.57;;
79706;SDS011;69200;53.612;-2.416;2023-05-10T14:26:29;4.05;;;0.60;;
79706;SDS011;69200;53.612;-2.416;2023-05-10T14:28:55;3.55;;;0.68;;
79706;SDS011;69200;53.612;-2.416;2023-05-10T14:31:20;4.03;;;0.93;;
79706;SDS011;69200;53.612;-2.416;2023-05-10T14:33:46;3.53;;;0.70;;
79706;SDS011;69200;53.612;-2.416;2023-05-10T14:36:12;1.85;;;0.60;;
79706;SDS011;69200;53.612;-2.416;2023-05-10T14:38:38;3.72;;;0.70;;
79706;SDS011;69200;53.612;-2.416;2023-05-10T14:41:04;3.75;;;0.77;;
79706;SDS011;69200;53.612;-2.416;2023-05-10T14:43:30;3.15;;;0.57;;
79706;SDS011;69200;53.612;-2.416;2023-05-10T14:45:55;3.40;;;0.70;;
79706;SDS011;69200;53.612;-2.416;2023-05-10T14:48:21;1.73;;;0.52;;
79706;SDS011;69200;53.612;-2.416;2023-05-10T14:50:46;2.85;;;0.68;;
79706;SDS011;69200;53.612;-2.416;2023-05-10T14:53:11;4.70;;;0.50;;
79706;SDS011;69200;53.612;-2.416;2023-05-10T14:55:37;2.60;;;0.52;;
79706;SDS011;69200;53.612;-2.416;2023-05-10T14:58:03;2.15;;;0.52;;
79706;SDS011;69200;53.612;-2.416;2023-05-10T15:00:28;2.80;;;0.55;;